sensor_id;sensor_type;location;lat;lon;timestamp;temperature;humidity
40287;DHT22;25998;46.604;13.610;2023-04-03T00:00:08;10.50;97.00
40287;DHT22;25998;46.604;13.610;2023-04-03T00:03:19;10.50;97.20
40287;DHT22;25998;46.604;13.610;2023-04-03T00:06:30;10.30;97.90
40287;DHT22;25998;46.604;13.610;2023-04-03T00:09:41;10.40;97.70
40287;DHT22;25998;46.604;13.610;2023-04-03T00:12:52;10.40;97.30
40287;DHT22;25998;46.604;13.610;2023-04-03T00:16:03;10.40;97.30
40287;DHT22;25998;46.604;13.610;2023-04-03T00:19:14;10.30;97.50
40287;DHT22;25998;46.604;13.610;2023-04-03T00:22:25;10.20;96.90
40287;DHT22;25998;46.604;13.610;2023-04-03T00:25:37;10.10;96.80
40287;DHT22;25998;46.604;13.610;2023-04-03T00:28:48;10.20;97.70
40287;DHT22;25998;46.604;13.610;2023-04-03T00:31:58;10.30;97.60
40287;DHT22;25998;46.604;13.610;2023-04-03T00:35:09;10.30;98.00
40287;DHT22;25998;46.604;13.610;2023-04-03T00:38:20;10.20;97.30
40287;DHT22;25998;46.604;13.610;2023-04-03T00:41:31;10.30;97.70
40287;DHT22;25998;46.604;13.610;2023-04-03T00:47:54;10.20;97.90
40287;DHT22;25998;46.604;13.610;2023-04-03T00:51:08;10.00;98.00
40287;DHT22;25998;46.604;13.610;2023-04-03T00:54:20;10.10;97.90
40287;DHT22;25998;46.604;13.610;2023-04-03T00:57:31;10.10;97.90
40287;DHT22;25998;46.604;13.610;2023-04-03T01:00:46;10.10;97.80
40287;DHT22;25998;46.604;13.610;2023-04-03T01:04:03;10.00;97.30
40287;DHT22;25998;46.604;13.610;2023-04-03T01:07:23;10.00;96.50
40287;DHT22;25998;46.604;13.610;2023-04-03T01:10:35;9.90;97.00
40287;DHT22;25998;46.604;13.610;2023-04-03T01:13:47;9.90;97.10
40287;DHT22;25998;46.604;13.610;2023-04-03T01:16:58;9.80;96.90
40287;DHT22;25998;46.604;13.610;2023-04-03T01:26:55;9.70;96.60
40287;DHT22;25998;46.604;13.610;2023-04-03T01:30:07;9.40;96.40
40287;DHT22;25998;46.604;13.610;2023-04-03T01:33:18;9.40;96.40
40287;DHT22;25998;46.604;13.610;2023-04-03T01:36:31;9.30;96.70
40287;DHT22;25998;46.604;13.610;2023-04-03T01:39:42;9.30;95.80
40287;DHT22;25998;46.604;13.610;2023-04-03T01:42:52;9.20;95.50
40287;DHT22;25998;46.604;13.610;2023-04-03T01:46:03;9.10;96.00
40287;DHT22;25998;46.604;13.610;2023-04-03T01:49:14;8.90;96.10
40287;DHT22;25998;46.604;13.610;2023-04-03T01:52:25;8.90;96.30
40287;DHT22;25998;46.604;13.610;2023-04-03T01:55:36;8.90;96.20
40287;DHT22;25998;46.604;13.610;2023-04-03T01:58:47;8.80;95.70
40287;DHT22;25998;46.604;13.610;2023-04-03T02:01:58;8.80;96.30
40287;DHT22;25998;46.604;13.610;2023-04-03T02:05:09;8.70;97.00
40287;DHT22;25998;46.604;13.610;2023-04-03T02:08:19;8.70;96.20
40287;DHT22;25998;46.604;13.610;2023-04-03T02:11:31;8.50;95.00
40287;DHT22;25998;46.604;13.610;2023-04-03T02:14:41;8.60;96.10
40287;DHT22;25998;46.604;13.610;2023-04-03T02:17:52;8.60;96.30
40287;DHT22;25998;46.604;13.610;2023-04-03T02:21:03;8.60;96.80
40287;DHT22;25998;46.604;13.610;2023-04-03T02:24:15;8.60;95.90
40287;DHT22;25998;46.604;13.610;2023-04-03T02:27:26;8.60;95.70
40287;DHT22;25998;46.604;13.610;2023-04-03T02:30:37;8.60;96.60
40287;DHT22;25998;46.604;13.610;2023-04-03T02:33:47;8.60;95.30
40287;DHT22;25998;46.604;13.610;2023-04-03T02:36:58;8.40;95.50
40287;DHT22;25998;46.604;13.610;2023-04-03T02:40:09;8.30;96.50
40287;DHT22;25998;46.604;13.610;2023-04-03T02:43:21;8.50;96.80
40287;DHT22;25998;46.604;13.610;2023-04-03T02:46:33;8.50;95.90
40287;DHT22;25998;46.604;13.610;2023-04-03T02:49:44;8.50;96.20
40287;DHT22;25998;46.604;13.610;2023-04-03T02:52:56;8.50;96.80
40287;DHT22;25998;46.604;13.610;2023-04-03T02:56:07;8.50;96.90
40287;DHT22;25998;46.604;13.610;2023-04-03T02:59:18;8.20;97.20
40287;DHT22;25998;46.604;13.610;2023-04-03T03:02:28;7.90;97.20
40287;DHT22;25998;46.604;13.610;2023-04-03T03:05:39;7.90;97.50
40287;DHT22;25998;46.604;13.610;2023-04-03T03:08:50;8.00;97.40
40287;DHT22;25998;46.604;13.610;2023-04-03T03:12:01;8.00;97.50
40287;DHT22;25998;46.604;13.610;2023-04-03T03:15:12;8.00;97.30
40287;DHT22;25998;46.604;13.610;2023-04-03T03:18:22;8.10;97.50
40287;DHT22;25998;46.604;13.610;2023-04-03T03:21:33;7.80;97.60
40287;DHT22;25998;46.604;13.610;2023-04-03T03:24:44;7.80;97.70
40287;DHT22;25998;46.604;13.610;2023-04-03T03:27:55;7.70;97.60
40287;DHT22;25998;46.604;13.610;2023-04-03T03:31:08;7.60;97.80
40287;DHT22;25998;46.604;13.610;2023-04-03T03:34:19;7.70;97.70
40287;DHT22;25998;46.604;13.610;2023-04-03T03:37:30;7.70;97.90
40287;DHT22;25998;46.604;13.610;2023-04-03T03:40:41;7.70;97.50
40287;DHT22;25998;46.604;13.610;2023-04-03T03:43:51;7.60;97.50
40287;DHT22;25998;46.604;13.610;2023-04-03T03:47:02;7.40;97.60
40287;DHT22;25998;46.604;13.610;2023-04-03T03:50:13;7.40;97.70
40287;DHT22;25998;46.604;13.610;2023-04-03T03:53:24;7.30;97.80
40287;DHT22;25998;46.604;13.610;2023-04-03T03:56:35;7.30;98.10
40287;DHT22;25998;46.604;13.610;2023-04-03T03:59:46;7.40;97.80
40287;DHT22;25998;46.604;13.610;2023-04-03T04:02:57;7.20;97.80
40287;DHT22;25998;46.604;13.610;2023-04-03T04:06:08;7.20;97.40
40287;DHT22;25998;46.604;13.610;2023-04-03T04:09:19;7.10;97.90
40287;DHT22;25998;46.604;13.610;2023-04-03T04:12:30;7.00;97.70
40287;DHT22;25998;46.604;13.610;2023-04-03T04:15:43;7.00;97.90
40287;DHT22;25998;46.604;13.610;2023-04-03T04:18:54;7.10;98.00
40287;DHT22;25998;46.604;13.610;2023-04-03T04:22:04;7.20;98.10
40287;DHT22;25998;46.604;13.610;2023-04-03T04:25:15;7.20;98.00
40287;DHT22;25998;46.604;13.610;2023-04-03T04:28:26;7.20;97.90
40287;DHT22;25998;46.604;13.610;2023-04-03T04:31:37;6.90;97.00
40287;DHT22;25998;46.604;13.610;2023-04-03T04:34:48;6.80;97.30
40287;DHT22;25998;46.604;13.610;2023-04-03T04:37:59;6.80;97.40
40287;DHT22;25998;46.604;13.610;2023-04-03T04:41:10;6.50;97.90
40287;DHT22;25998;46.604;13.610;2023-04-03T04:44:21;6.50;98.20
40287;DHT22;25998;46.604;13.610;2023-04-03T04:47:31;6.60;97.90
40287;DHT22;25998;46.604;13.610;2023-04-03T04:50:42;6.60;98.30
40287;DHT22;25998;46.604;13.610;2023-04-03T04:53:53;6.60;98.10
40287;DHT22;25998;46.604;13.610;2023-04-03T04:57:04;6.70;98.40
40287;DHT22;25998;46.604;13.610;2023-04-03T05:00:15;6.60;98.10
40287;DHT22;25998;46.604;13.610;2023-04-03T05:03:27;6.40;98.60
40287;DHT22;25998;46.604;13.610;2023-04-03T05:06:38;6.40;98.30
40287;DHT22;25998;46.604;13.610;2023-04-03T05:09:49;6.30;98.20
40287;DHT22;25998;46.604;13.610;2023-04-03T05:12:59;6.10;98.50
40287;DHT22;25998;46.604;13.610;2023-04-03T05:16:10;6.20;99.40
40287;DHT22;25998;46.604;13.610;2023-04-03T05:19:21;6.30;98.70
40287;DHT22;25998;46.604;13.610;2023-04-03T05:22:32;6.20;98.50
40287;DHT22;25998;46.604;13.610;2023-04-03T05:25:43;6.30;98.70
40287;DHT22;25998;46.604;13.610;2023-04-03T05:28:55;6.40;98.60
40287;DHT22;25998;46.604;13.610;2023-04-03T05:32:06;6.30;98.40
40287;DHT22;25998;46.604;13.610;2023-04-03T05:35:17;6.40;98.30
40287;DHT22;25998;46.604;13.610;2023-04-03T05:38:28;6.20;98.30
40287;DHT22;25998;46.604;13.610;2023-04-03T05:41:39;6.20;98.30
40287;DHT22;25998;46.604;13.610;2023-04-03T05:44:50;6.10;96.30
40287;DHT22;25998;46.604;13.610;2023-04-03T05:48:01;6.10;95.30
40287;DHT22;25998;46.604;13.610;2023-04-03T05:51:34;6.10;95.80
40287;DHT22;25998;46.604;13.610;2023-04-03T05:54:45;6.00;97.20
40287;DHT22;25998;46.604;13.610;2023-04-03T05:57:58;5.90;97.30
40287;DHT22;25998;46.604;13.610;2023-04-03T06:01:09;6.10;97.10
40287;DHT22;25998;46.604;13.610;2023-04-03T06:04:20;6.20;97.00
40287;DHT22;25998;46.604;13.610;2023-04-03T06:07:31;6.00;97.40
40287;DHT22;25998;46.604;13.610;2023-04-03T06:10:42;6.10;97.80
40287;DHT22;25998;46.604;13.610;2023-04-03T06:13:53;6.40;96.70
40287;DHT22;25998;46.604;13.610;2023-04-03T06:17:04;6.30;96.80
40287;DHT22;25998;46.604;13.610;2023-04-03T06:20:15;6.30;97.20
40287;DHT22;25998;46.604;13.610;2023-04-03T06:23:26;6.40;96.90
40287;DHT22;25998;46.604;13.610;2023-04-03T06:26:37;6.20;97.10
40287;DHT22;25998;46.604;13.610;2023-04-03T06:29:48;6.30;96.10
40287;DHT22;25998;46.604;13.610;2023-04-03T06:32:59;6.20;97.30
40287;DHT22;25998;46.604;13.610;2023-04-03T06:36:11;6.20;97.30
40287;DHT22;25998;46.604;13.610;2023-04-03T06:39:22;6.30;96.10
40287;DHT22;25998;46.604;13.610;2023-04-03T06:42:33;6.40;96.50
40287;DHT22;25998;46.604;13.610;2023-04-03T06:45:45;6.50;96.10
40287;DHT22;25998;46.604;13.610;2023-04-03T06:48:56;6.40;95.00
40287;DHT22;25998;46.604;13.610;2023-04-03T06:52:07;6.50;94.70
40287;DHT22;25998;46.604;13.610;2023-04-03T06:55:18;6.30;94.50
40287;DHT22;25998;46.604;13.610;2023-04-03T06:58:29;6.10;94.20
40287;DHT22;25998;46.604;13.610;2023-04-03T07:01:40;6.30;94.30
40287;DHT22;25998;46.604;13.610;2023-04-03T07:04:51;6.50;93.70
40287;DHT22;25998;46.604;13.610;2023-04-03T07:08:02;6.70;93.80
40287;DHT22;25998;46.604;13.610;2023-04-03T07:11:13;6.80;94.00
40287;DHT22;25998;46.604;13.610;2023-04-03T07:14:23;6.80;93.40
40287;DHT22;25998;46.604;13.610;2023-04-03T07:17:34;6.90;93.60
40287;DHT22;25998;46.604;13.610;2023-04-03T07:20:46;7.20;93.10
40287;DHT22;25998;46.604;13.610;2023-04-03T07:23:57;7.50;92.20
40287;DHT22;25998;46.604;13.610;2023-04-03T07:27:08;8.30;92.70
40287;DHT22;25998;46.604;13.610;2023-04-03T07:30:19;9.20;92.30
40287;DHT22;25998;46.604;13.610;2023-04-03T07:33:30;9.80;90.40
40287;DHT22;25998;46.604;13.610;2023-04-03T07:36:41;9.80;90.20
40287;DHT22;25998;46.604;13.610;2023-04-03T07:39:52;9.80;90.10
40287;DHT22;25998;46.604;13.610;2023-04-03T07:43:04;10.50;90.20
40287;DHT22;25998;46.604;13.610;2023-04-03T07:46:16;10.80;90.00
40287;DHT22;25998;46.604;13.610;2023-04-03T07:49:27;10.50;86.20
40287;DHT22;25998;46.604;13.610;2023-04-03T07:52:39;10.90;88.00
40287;DHT22;25998;46.604;13.610;2023-04-03T07:55:49;11.30;85.70
40287;DHT22;25998;46.604;13.610;2023-04-03T07:59:02;11.40;83.90
40287;DHT22;25998;46.604;13.610;2023-04-03T08:02:13;11.60;86.80
40287;DHT22;25998;46.604;13.610;2023-04-03T08:05:24;11.40;84.70
40287;DHT22;25998;46.604;13.610;2023-04-03T08:08:35;11.00;84.70
40287;DHT22;25998;46.604;13.610;2023-04-03T08:11:46;11.00;83.80
40287;DHT22;25998;46.604;13.610;2023-04-03T08:14:59;10.50;83.90
40287;DHT22;25998;46.604;13.610;2023-04-03T08:18:11;11.60;87.10
40287;DHT22;25998;46.604;13.610;2023-04-03T08:21:22;12.60;84.30
40287;DHT22;25998;46.604;13.610;2023-04-03T08:24:34;12.30;81.30
40287;DHT22;25998;46.604;13.610;2023-04-03T08:27:44;11.80;81.00
40287;DHT22;25998;46.604;13.610;2023-04-03T08:30:55;12.20;82.70
40287;DHT22;25998;46.604;13.610;2023-04-03T08:34:06;11.70;80.70
40287;DHT22;25998;46.604;13.610;2023-04-03T08:37:17;10.60;83.20
40287;DHT22;25998;46.604;13.610;2023-04-03T08:40:28;10.10;84.80
40287;DHT22;25998;46.604;13.610;2023-04-03T08:50:41;9.10;86.70
40287;DHT22;25998;46.604;13.610;2023-04-03T08:54:06;9.60;84.30
40287;DHT22;25998;46.604;13.610;2023-04-03T08:57:30;9.60;84.10
40287;DHT22;25998;46.604;13.610;2023-04-03T09:01:02;9.70;83.80
40287;DHT22;25998;46.604;13.610;2023-04-03T09:04:16;9.70;82.60
40287;DHT22;25998;46.604;13.610;2023-04-03T09:07:39;10.50;82.50
40287;DHT22;25998;46.604;13.610;2023-04-03T09:18:22;10.90;84.30
40287;DHT22;25998;46.604;13.610;2023-04-03T09:24:26;10.70;82.20
40287;DHT22;25998;46.604;13.610;2023-04-03T09:27:38;11.20;82.90
40287;DHT22;25998;46.604;13.610;2023-04-03T09:30:49;11.50;80.80
40287;DHT22;25998;46.604;13.610;2023-04-03T09:34:04;11.90;83.30
40287;DHT22;25998;46.604;13.610;2023-04-03T09:37:37;12.20;80.90
40287;DHT22;25998;46.604;13.610;2023-04-03T09:41:06;12.00;81.10
40287;DHT22;25998;46.604;13.610;2023-04-03T09:44:23;12.60;84.00
40287;DHT22;25998;46.604;13.610;2023-04-03T09:47:36;12.50;81.70
40287;DHT22;25998;46.604;13.610;2023-04-03T09:57:34;11.80;80.50
40287;DHT22;25998;46.604;13.610;2023-04-03T10:00:54;11.90;80.40
40287;DHT22;25998;46.604;13.610;2023-04-03T10:07:34;12.10;78.40
40287;DHT22;25998;46.604;13.610;2023-04-03T10:10:47;12.30;78.60
40287;DHT22;25998;46.604;13.610;2023-04-03T10:14:00;12.70;79.00
40287;DHT22;25998;46.604;13.610;2023-04-03T10:17:29;12.70;79.80
40287;DHT22;25998;46.604;13.610;2023-04-03T10:20:47;12.70;78.10
40287;DHT22;25998;46.604;13.610;2023-04-03T10:34:33;12.90;77.30
40287;DHT22;25998;46.604;13.610;2023-04-03T10:52:11;15.10;77.20
40287;DHT22;25998;46.604;13.610;2023-04-03T10:56:24;14.70;70.50
40287;DHT22;25998;46.604;13.610;2023-04-03T10:59:53;14.10;72.60
40287;DHT22;25998;46.604;13.610;2023-04-03T11:02:59;13.50;75.20
40287;DHT22;25998;46.604;13.610;2023-04-03T11:06:14;13.30;71.80
40287;DHT22;25998;46.604;13.610;2023-04-03T11:09:32;13.00;76.50
40287;DHT22;25998;46.604;13.610;2023-04-03T11:12:56;13.00;75.10
40287;DHT22;25998;46.604;13.610;2023-04-03T11:16:08;13.70;73.90
40287;DHT22;25998;46.604;13.610;2023-04-03T11:26:30;14.30;72.70
40287;DHT22;25998;46.604;13.610;2023-04-03T11:29:44;13.80;72.30
40287;DHT22;25998;46.604;13.610;2023-04-03T11:33:05;13.50;72.60
40287;DHT22;25998;46.604;13.610;2023-04-03T11:36:26;13.60;72.20
40287;DHT22;25998;46.604;13.610;2023-04-03T11:39:38;14.40;74.50
40287;DHT22;25998;46.604;13.610;2023-04-03T11:46:09;12.50;71.30
40287;DHT22;25998;46.604;13.610;2023-04-03T11:59:37;12.80;76.90
40287;DHT22;25998;46.604;13.610;2023-04-03T12:02:48;13.80;72.40
40287;DHT22;25998;46.604;13.610;2023-04-03T12:12:57;12.50;74.70
40287;DHT22;25998;46.604;13.610;2023-04-03T12:16:24;12.40;72.80
40287;DHT22;25998;46.604;13.610;2023-04-03T12:19:38;12.50;73.10
40287;DHT22;25998;46.604;13.610;2023-04-03T12:23:31;12.70;71.90
40287;DHT22;25998;46.604;13.610;2023-04-03T12:27:05;12.90;74.20
40287;DHT22;25998;46.604;13.610;2023-04-03T12:30:23;12.60;75.50
40287;DHT22;25998;46.604;13.610;2023-04-03T12:33:47;12.60;71.60
40287;DHT22;25998;46.604;13.610;2023-04-03T12:47:35;12.80;71.60
40287;DHT22;25998;46.604;13.610;2023-04-03T12:50:49;12.80;72.50
40287;DHT22;25998;46.604;13.610;2023-04-03T12:54:16;12.60;72.10
40287;DHT22;25998;46.604;13.610;2023-04-03T12:57:27;12.50;73.00
40287;DHT22;25998;46.604;13.610;2023-04-03T13:00:38;12.20;71.60
40287;DHT22;25998;46.604;13.610;2023-04-03T13:03:56;12.50;73.30
40287;DHT22;25998;46.604;13.610;2023-04-03T13:14:05;12.30;71.80
40287;DHT22;25998;46.604;13.610;2023-04-03T13:17:26;12.50;74.80
40287;DHT22;25998;46.604;13.610;2023-04-03T13:20:38;12.90;72.30
40287;DHT22;25998;46.604;13.610;2023-04-03T13:23:51;12.70;74.20
40287;DHT22;25998;46.604;13.610;2023-04-03T13:27:04;12.80;72.10
40287;DHT22;25998;46.604;13.610;2023-04-03T13:30:33;12.70;72.20
40287;DHT22;25998;46.604;13.610;2023-04-03T13:34:03;12.40;72.00
40287;DHT22;25998;46.604;13.610;2023-04-03T13:37:29;11.60;71.20
40287;DHT22;25998;46.604;13.610;2023-04-03T13:40:58;11.90;72.10
40287;DHT22;25998;46.604;13.610;2023-04-03T13:47:42;12.30;74.60
40287;DHT22;25998;46.604;13.610;2023-04-03T13:51:03;13.00;72.00
40287;DHT22;25998;46.604;13.610;2023-04-03T13:54:24;12.90;71.40
40287;DHT22;25998;46.604;13.610;2023-04-03T13:57:35;12.40;70.50
40287;DHT22;25998;46.604;13.610;2023-04-03T14:00:50;11.90;70.30
40287;DHT22;25998;46.604;13.610;2023-04-03T14:04:17;11.60;72.10
40287;DHT22;25998;46.604;13.610;2023-04-03T14:07:30;11.40;70.70
40287;DHT22;25998;46.604;13.610;2023-04-03T14:10:41;11.70;73.50
40287;DHT22;25998;46.604;13.610;2023-04-03T14:13:53;12.50;70.00
40287;DHT22;25998;46.604;13.610;2023-04-03T14:17:15;12.60;71.20
40287;DHT22;25998;46.604;13.610;2023-04-03T14:20:27;12.80;71.10
40287;DHT22;25998;46.604;13.610;2023-04-03T14:23:39;12.80;69.70
40287;DHT22;25998;46.604;13.610;2023-04-03T14:26:52;12.90;69.60
40287;DHT22;25998;46.604;13.610;2023-04-03T14:30:05;13.10;70.30
40287;DHT22;25998;46.604;13.610;2023-04-03T14:33:20;13.00;67.60
40287;DHT22;25998;46.604;13.610;2023-04-03T14:36:32;13.10;69.40
40287;DHT22;25998;46.604;13.610;2023-04-03T14:39:44;12.80;67.00
40287;DHT22;25998;46.604;13.610;2023-04-03T14:42:55;13.10;68.80
40287;DHT22;25998;46.604;13.610;2023-04-03T14:46:29;12.80;66.50
40287;DHT22;25998;46.604;13.610;2023-04-03T14:49:42;12.80;69.10
40287;DHT22;25998;46.604;13.610;2023-04-03T14:52:56;12.60;67.60
40287;DHT22;25998;46.604;13.610;2023-04-03T14:59:23;12.70;68.80
40287;DHT22;25998;46.604;13.610;2023-04-03T15:02:36;12.60;67.60
40287;DHT22;25998;46.604;13.610;2023-04-03T15:05:48;12.30;65.40
40287;DHT22;25998;46.604;13.610;2023-04-03T15:09:00;12.00;63.40
40287;DHT22;25998;46.604;13.610;2023-04-03T15:12:11;11.90;65.90
40287;DHT22;25998;46.604;13.610;2023-04-03T15:15:22;11.70;65.50
40287;DHT22;25998;46.604;13.610;2023-04-03T15:18:37;11.50;64.60
40287;DHT22;25998;46.604;13.610;2023-04-03T15:21:48;11.10;68.80
40287;DHT22;25998;46.604;13.610;2023-04-03T15:24:59;11.10;67.60
40287;DHT22;25998;46.604;13.610;2023-04-03T15:28:27;11.10;66.70
40287;DHT22;25998;46.604;13.610;2023-04-03T15:31:38;11.00;65.30
40287;DHT22;25998;46.604;13.610;2023-04-03T15:34:49;10.90;67.70
40287;DHT22;25998;46.604;13.610;2023-04-03T15:38:00;11.10;67.60
40287;DHT22;25998;46.604;13.610;2023-04-03T15:41:11;11.10;68.20
40287;DHT22;25998;46.604;13.610;2023-04-03T15:44:22;10.90;66.40
40287;DHT22;25998;46.604;13.610;2023-04-03T15:47:33;10.90;65.70
40287;DHT22;25998;46.604;13.610;2023-04-03T15:50:44;10.90;66.80
40287;DHT22;25998;46.604;13.610;2023-04-03T15:53:55;10.70;65.40
40287;DHT22;25998;46.604;13.610;2023-04-03T15:57:06;10.90;67.20
40287;DHT22;25998;46.604;13.610;2023-04-03T16:00:17;11.10;67.80
40287;DHT22;25998;46.604;13.610;2023-04-03T16:03:28;11.10;65.60
40287;DHT22;25998;46.604;13.610;2023-04-03T16:06:40;10.90;64.80
40287;DHT22;25998;46.604;13.610;2023-04-03T16:09:52;10.70;63.90
40287;DHT22;25998;46.604;13.610;2023-04-03T16:13:03;10.60;65.70
40287;DHT22;25998;46.604;13.610;2023-04-03T16:16:14;10.60;64.30
40287;DHT22;25998;46.604;13.610;2023-04-03T16:19:25;10.50;66.00
40287;DHT22;25998;46.604;13.610;2023-04-03T16:22:37;10.60;65.90
40287;DHT22;25998;46.604;13.610;2023-04-03T16:25:48;10.60;66.60
40287;DHT22;25998;46.604;13.610;2023-04-03T16:29:00;10.50;69.70
40287;DHT22;25998;46.604;13.610;2023-04-03T16:32:11;10.30;64.80
40287;DHT22;25998;46.604;13.610;2023-04-03T16:35:23;10.00;64.00
40287;DHT22;25998;46.604;13.610;2023-04-03T16:38:34;9.90;66.00
40287;DHT22;25998;46.604;13.610;2023-04-03T16:41:45;9.80;65.20
40287;DHT22;25998;46.604;13.610;2023-04-03T16:44:56;9.90;67.40
40287;DHT22;25998;46.604;13.610;2023-04-03T16:48:09;10.00;66.60
40287;DHT22;25998;46.604;13.610;2023-04-03T16:51:20;9.90;69.50
40287;DHT22;25998;46.604;13.610;2023-04-03T16:54:32;9.80;66.50
40287;DHT22;25998;46.604;13.610;2023-04-03T16:57:43;9.90;69.00
40287;DHT22;25998;46.604;13.610;2023-04-03T17:00:54;9.80;67.50
40287;DHT22;25998;46.604;13.610;2023-04-03T17:04:05;9.70;69.10
40287;DHT22;25998;46.604;13.610;2023-04-03T17:07:16;9.50;65.60
40287;DHT22;25998;46.604;13.610;2023-04-03T17:10:28;9.50;66.90
40287;DHT22;25998;46.604;13.610;2023-04-03T17:13:39;9.10;67.30
40287;DHT22;25998;46.604;13.610;2023-04-03T17:16:50;9.00;68.60
40287;DHT22;25998;46.604;13.610;2023-04-03T17:20:01;8.70;68.40
40287;DHT22;25998;46.604;13.610;2023-04-03T17:23:12;8.70;67.20
40287;DHT22;25998;46.604;13.610;2023-04-03T17:26:24;8.60;67.70
40287;DHT22;25998;46.604;13.610;2023-04-03T17:29:36;8.80;67.40
40287;DHT22;25998;46.604;13.610;2023-04-03T17:32:46;8.80;67.40
40287;DHT22;25998;46.604;13.610;2023-04-03T17:35:58;8.60;65.60
40287;DHT22;25998;46.604;13.610;2023-04-03T17:39:11;8.40;68.80
40287;DHT22;25998;46.604;13.610;2023-04-03T17:42:22;8.10;67.80
40287;DHT22;25998;46.604;13.610;2023-04-03T17:45:32;8.30;70.70
40287;DHT22;25998;46.604;13.610;2023-04-03T17:48:43;8.00;65.70
40287;DHT22;25998;46.604;13.610;2023-04-03T17:51:54;7.90;66.70
40287;DHT22;25998;46.604;13.610;2023-04-03T17:55:05;8.10;68.60
40287;DHT22;25998;46.604;13.610;2023-04-03T17:58:16;8.00;66.80
40287;DHT22;25998;46.604;13.610;2023-04-03T18:01:34;8.10;70.50
40287;DHT22;25998;46.604;13.610;2023-04-03T18:04:46;8.00;72.50
40287;DHT22;25998;46.604;13.610;2023-04-03T18:07:57;8.10;70.00
40287;DHT22;25998;46.604;13.610;2023-04-03T18:11:09;8.20;70.00
40287;DHT22;25998;46.604;13.610;2023-04-03T18:14:22;8.20;72.70
40287;DHT22;25998;46.604;13.610;2023-04-03T18:17:35;8.10;71.90
40287;DHT22;25998;46.604;13.610;2023-04-03T18:20:45;7.90;71.50
40287;DHT22;25998;46.604;13.610;2023-04-03T18:23:56;7.90;70.60
40287;DHT22;25998;46.604;13.610;2023-04-03T18:27:12;7.90;72.40
40287;DHT22;25998;46.604;13.610;2023-04-03T18:30:24;7.80;71.00
40287;DHT22;25998;46.604;13.610;2023-04-03T18:33:36;7.90;73.20
40287;DHT22;25998;46.604;13.610;2023-04-03T18:36:47;7.90;70.80
40287;DHT22;25998;46.604;13.610;2023-04-03T18:39:58;7.70;69.60
40287;DHT22;25998;46.604;13.610;2023-04-03T18:43:10;7.50;73.20
40287;DHT22;25998;46.604;13.610;2023-04-03T18:46:21;7.60;74.50
40287;DHT22;25998;46.604;13.610;2023-04-03T18:49:33;7.40;72.30
40287;DHT22;25998;46.604;13.610;2023-04-03T18:52:45;7.40;74.80
40287;DHT22;25998;46.604;13.610;2023-04-03T18:56:00;7.40;74.20
40287;DHT22;25998;46.604;13.610;2023-04-03T18:59:11;7.40;74.70
40287;DHT22;25998;46.604;13.610;2023-04-03T19:02:22;7.30;74.80
40287;DHT22;25998;46.604;13.610;2023-04-03T19:05:35;7.10;76.00
40287;DHT22;25998;46.604;13.610;2023-04-03T19:08:48;6.70;73.00
40287;DHT22;25998;46.604;13.610;2023-04-03T19:12:00;6.80;74.70
40287;DHT22;25998;46.604;13.610;2023-04-03T19:15:15;6.60;73.20
40287;DHT22;25998;46.604;13.610;2023-04-03T19:18:26;6.70;72.40
40287;DHT22;25998;46.604;13.610;2023-04-03T19:21:37;6.80;74.40
40287;DHT22;25998;46.604;13.610;2023-04-03T19:24:50;6.90;76.40
40287;DHT22;25998;46.604;13.610;2023-04-03T19:28:01;6.90;70.10
40287;DHT22;25998;46.604;13.610;2023-04-03T19:31:14;6.30;71.80
40287;DHT22;25998;46.604;13.610;2023-04-03T19:34:25;5.90;70.90
40287;DHT22;25998;46.604;13.610;2023-04-03T19:37:36;6.00;74.70
40287;DHT22;25998;46.604;13.610;2023-04-03T19:40:47;6.20;71.50
40287;DHT22;25998;46.604;13.610;2023-04-03T19:43:58;6.40;73.70
40287;DHT22;25998;46.604;13.610;2023-04-03T19:47:09;6.50;73.10
40287;DHT22;25998;46.604;13.610;2023-04-03T19:50:20;6.30;73.90
40287;DHT22;25998;46.604;13.610;2023-04-03T19:53:31;6.20;74.50
40287;DHT22;25998;46.604;13.610;2023-04-03T19:56:42;6.20;75.80
40287;DHT22;25998;46.604;13.610;2023-04-03T19:59:53;6.00;74.70
40287;DHT22;25998;46.604;13.610;2023-04-03T20:03:03;5.80;75.50
40287;DHT22;25998;46.604;13.610;2023-04-03T20:06:15;6.00;75.70
40287;DHT22;25998;46.604;13.610;2023-04-03T20:09:26;5.80;75.50
40287;DHT22;25998;46.604;13.610;2023-04-03T20:12:37;6.00;77.40
40287;DHT22;25998;46.604;13.610;2023-04-03T20:15:48;5.90;76.20
40287;DHT22;25998;46.604;13.610;2023-04-03T20:19:00;5.60;76.10
40287;DHT22;25998;46.604;13.610;2023-04-03T20:22:12;5.80;76.30
40287;DHT22;25998;46.604;13.610;2023-04-03T20:25:22;5.70;76.30
40287;DHT22;25998;46.604;13.610;2023-04-03T20:28:33;5.80;76.70
40287;DHT22;25998;46.604;13.610;2023-04-03T20:31:45;5.90;78.00
40287;DHT22;25998;46.604;13.610;2023-04-03T20:34:56;6.00;77.10
40287;DHT22;25998;46.604;13.610;2023-04-03T20:38:07;5.60;73.40
40287;DHT22;25998;46.604;13.610;2023-04-03T20:41:18;5.30;75.70
40287;DHT22;25998;46.604;13.610;2023-04-03T20:44:30;5.30;76.40
40287;DHT22;25998;46.604;13.610;2023-04-03T20:47:41;5.30;77.60
40287;DHT22;25998;46.604;13.610;2023-04-03T20:50:53;5.20;79.10
40287;DHT22;25998;46.604;13.610;2023-04-03T20:54:04;5.10;77.80
40287;DHT22;25998;46.604;13.610;2023-04-03T20:57:15;5.00;79.00
40287;DHT22;25998;46.604;13.610;2023-04-03T21:00:26;5.00;78.50
40287;DHT22;25998;46.604;13.610;2023-04-03T21:03:37;5.00;79.00
40287;DHT22;25998;46.604;13.610;2023-04-03T21:21:52;5.00;79.40
40287;DHT22;25998;46.604;13.610;2023-04-03T21:25:05;4.60;80.30
40287;DHT22;25998;46.604;13.610;2023-04-03T21:28:17;4.60;81.70
40287;DHT22;25998;46.604;13.610;2023-04-03T21:34:58;5.20;81.70
40287;DHT22;25998;46.604;13.610;2023-04-03T21:38:08;5.10;80.00
40287;DHT22;25998;46.604;13.610;2023-04-03T21:41:19;4.90;81.60
40287;DHT22;25998;46.604;13.610;2023-04-03T21:44:31;4.80;80.90
40287;DHT22;25998;46.604;13.610;2023-04-03T21:47:42;4.90;79.00
40287;DHT22;25998;46.604;13.610;2023-04-03T21:51:00;4.90;78.60
40287;DHT22;25998;46.604;13.610;2023-04-03T21:54:11;4.90;79.80
40287;DHT22;25998;46.604;13.610;2023-04-03T21:57:22;4.80;79.20
40287;DHT22;25998;46.604;13.610;2023-04-03T22:00:33;4.60;80.30
40287;DHT22;25998;46.604;13.610;2023-04-03T22:03:45;4.50;81.90
40287;DHT22;25998;46.604;13.610;2023-04-03T22:06:56;4.50;80.90
40287;DHT22;25998;46.604;13.610;2023-04-03T22:10:07;4.50;81.20
40287;DHT22;25998;46.604;13.610;2023-04-03T22:13:18;4.20;81.00
40287;DHT22;25998;46.604;13.610;2023-04-03T22:16:29;4.10;80.80
40287;DHT22;25998;46.604;13.610;2023-04-03T22:19:40;4.10;82.00
40287;DHT22;25998;46.604;13.610;2023-04-03T22:22:50;3.90;81.30